Terminal Aerodrome Forecast
Issued by NWS Sterling, VA

Current Version | Previous Version | Text Only | Print | Product List | Glossary Off
Versions: 1 2 3 4 5 6 7 8 9 10 11 12 13 14 15 16 17 18 19 20 21 22 23 24 25 26

000
FTUS41 KLWX 150800 AAA
TAFMRB
TAF AMD
KMRB 150841Z 1509/1606 30005KT P6SM OVC025
     FM151600 VRB05KT P6SM BKN050
     FM160000 13004KT P6SM SCT060=

USA.gov is the U.S. government's official web portal to all federal, state and local government web resources and services.